Time;durP1;ratioP1;P1;durP2;ratioP2;P2;SDS_P1;SDS_P2;PMS_P1;PMS_P2;Temp;Humidity;BMP_temperature;BMP_pressure;BME280_temperature;BME280_humidity;BME280_pressure;Samples;Min_cycle;Max_cycle;Signal;HPM_P1;HPM_P2
2022/10/27 00:00:36;;;;;;;18.17;6.07;;;10.80;99.90;;;;;;5023095;28;20465;-61
2022/10/27 00:03:01;;;;;;;17.17;5.67;;;10.80;99.90;;;;;;5028672;28;20443;-62
2022/10/27 00:05:27;;;;;;;16.60;5.50;;;10.70;99.90;;;;;;5024019;28;20246;-63
2022/10/27 00:07:53;;;;;;;13.13;5.47;;;10.80;99.90;;;;;;5020572;28;20628;-61
2022/10/27 00:10:19;;;;;;;10.43;4.93;;;10.70;99.90;;;;;;5029346;28;20207;-62
2022/10/27 00:12:44;;;;;;;14.43;4.73;;;10.70;99.90;;;;;;5039712;28;20171;-62
2022/10/27 00:15:11;;;;;;;18.07;6.07;;;10.70;99.90;;;;;;5028280;28;20921;-62
2022/10/27 00:17:37;;;;;;;8.53;5.00;;;10.70;99.90;;;;;;5022418;28;20176;-62
2022/10/27 00:20:03;;;;;;;7.60;5.40;;;10.70;99.90;;;;;;5028324;28;20446;-61
2022/10/27 00:22:29;;;;;;;17.67;4.93;;;10.70;99.90;;;;;;5034137;28;20425;-61
2022/10/27 00:24:55;;;;;;;7.40;5.00;;;10.70;99.90;;;;;;5030502;28;20442;-61
2022/10/27 00:27:20;;;;;;;5.90;4.33;;;10.70;99.90;;;;;;5030069;28;20670;-61
2022/10/27 00:29:46;;;;;;;7.70;4.47;;;10.70;99.90;;;;;;5037976;28;20180;-61
2022/10/27 00:32:11;;;;;;;10.23;4.77;;;10.70;99.90;;;;;;5031313;28;20251;-62
2022/10/27 00:34:37;;;;;;;11.03;4.80;;;10.70;99.90;;;;;;5031032;28;20180;-61
2022/10/27 00:37:03;;;;;;;6.53;4.47;;;10.70;99.90;;;;;;5035236;28;20175;-61
2022/10/27 00:39:28;;;;;;;18.60;4.83;;;10.60;99.90;;;;;;5025714;28;20191;-62
2022/10/27 00:41:54;;;;;;;8.07;4.70;;;10.60;99.90;;;;;;5031162;28;20658;-61
2022/10/27 00:44:55;;;;;;;6.40;4.83;;;10.60;99.90;;;;;;5033828;28;20171;-61
2022/10/27 00:47:28;;;;;;;17.43;5.27;;;10.60;99.90;;;;;;4975117;28;20264;-61
2022/10/27 00:50:15;;;;;;;24.33;5.67;;;10.60;99.90;;;;;;5025426;28;20433;-61
2022/10/27 00:52:55;;;;;;;16.47;5.70;;;10.60;99.90;;;;;;5023908;28;20436;-61
2022/10/27 00:55:29;;;;;;;11.90;5.50;;;10.50;99.90;;;;;;5025443;28;20427;-60
2022/10/27 00:57:59;;;;;;;17.10;4.70;;;10.50;99.90;;;;;;5025021;28;20431;-61
2022/10/27 01:00:25;;;;;;;12.40;5.13;;;10.50;99.90;;;;;;5028282;28;20450;-61
2022/10/27 01:02:51;;;;;;;11.53;5.27;;;10.50;99.90;;;;;;5017519;28;20437;-62
2022/10/27 01:05:22;;;;;;;21.77;5.60;;;10.40;99.90;;;;;;5026373;28;20177;-61
2022/10/27 01:07:50;;;;;;;9.60;5.10;;;10.40;99.90;;;;;;5024866;28;20466;-61
2022/10/27 01:10:17;;;;;;;9.17;4.60;;;10.40;99.90;;;;;;5027212;28;20479;-61
2022/10/27 01:12:44;;;;;;;5.40;4.33;;;10.40;99.90;;;;;;5014887;28;21127;-62
2022/10/27 01:15:10;;;;;;;16.40;4.90;;;10.40;99.90;;;;;;5033935;28;20472;-61
2022/10/27 01:17:53;;;;;;;16.90;4.83;;;10.40;99.90;;;;;;5026618;28;20426;-62
2022/10/27 01:20:30;;;;;;;10.00;4.40;;;10.40;99.90;;;;;;5023371;28;20462;-61
2022/10/27 01:23:02;;;;;;;8.13;4.70;;;10.40;99.90;;;;;;5034181;28;20457;-62
2022/10/27 01:25:42;;;;;;;6.07;4.50;;;10.30;99.90;;;;;;5028080;28;20431;-61
2022/10/27 01:28:10;;;;;;;9.57;4.60;;;10.30;99.90;;;;;;5030603;28;20448;-61
2022/10/27 01:31:11;;;;;;;9.40;3.93;;;10.30;99.90;;;;;;5023402;28;20474;-61
2022/10/27 01:34:13;;;;;;;21.80;4.80;;;10.30;99.90;;;;;;5025984;28;20422;-62
2022/10/27 01:36:49;;;;;;;7.00;4.23;;;10.30;99.90;;;;;;4991823;28;20445;-62
2022/10/27 01:39:41;;;;;;;6.80;4.67;;;10.20;99.90;;;;;;5029656;28;20437;-62
2022/10/27 01:42:16;;;;;;;9.40;4.83;;;10.20;99.90;;;;;;5018210;28;20436;-61
2022/10/27 01:44:48;;;;;;;10.33;4.90;;;10.20;99.90;;;;;;5026585;28;20575;-62
2022/10/27 01:47:15;;;;;;;11.23;4.70;;;10.20;99.90;;;;;;5026757;28;20433;-62
2022/10/27 01:49:42;;;;;;;6.40;4.90;;;10.20;99.90;;;;;;5024092;28;21014;-61
2022/10/27 01:52:39;;;;;;;38.77;4.60;;;10.20;99.90;;;;;;5018228;28;20506;-61
2022/10/27 01:55:09;;;;;;;8.53;4.70;;;10.20;99.90;;;;;;5015393;28;20946;-61
2022/10/27 01:58:05;;;;;;;5.20;3.90;;;10.10;99.90;;;;;;5018726;28;20431;-61
2022/10/27 02:00:39;;;;;;;7.43;4.10;;;10.20;99.90;;;;;;5024974;28;20463;-62
2022/10/27 02:03:15;;;;;;;14.50;4.50;;;10.10;99.90;;;;;;5018799;28;20910;-62
2022/10/27 02:06:10;;;;;;;19.87;4.53;;;10.10;99.90;;;;;;5021517;28;20436;-61
2022/10/27 02:08:35;;;;;;;6.90;3.87;;;10.10;99.90;;;;;;5024744;28;20435;-61
2022/10/27 02:11:05;;;;;;;7.67;4.17;;;10.10;99.90;;;;;;5029065;28;20849;-61
2022/10/27 02:13:33;;;;;;;24.40;5.23;;;10.10;99.90;;;;;;5026254;28;20175;-61
2022/10/27 02:16:07;;;;;;;22.93;5.10;;;10.10;99.90;;;;;;5027776;28;20427;-61
2022/10/27 02:18:38;;;;;;;11.33;3.87;;;10.10;99.90;;;;;;5026411;28;20460;-61
2022/10/27 02:21:08;;;;;;;27.77;4.67;;;10.00;99.90;;;;;;5022304;28;20466;-62
2022/10/27 02:23:34;;;;;;;5.20;3.80;;;10.00;99.90;;;;;;5021917;28;20518;-61
2022/10/27 02:26:22;;;;;;;15.17;4.63;;;10.00;99.90;;;;;;5026259;28;20433;-61
2022/10/27 02:29:04;;;;;;;6.50;3.57;;;10.00;99.90;;;;;;5028382;28;20414;-62
2022/10/27 02:31:34;;;;;;;17.13;4.27;;;10.00;99.90;;;;;;5028624;28;20462;-61
2022/10/27 02:34:02;;;;;;;36.20;5.43;;;10.00;99.90;;;;;;5022241;28;20426;-62
2022/10/27 02:36:28;;;;;;;18.40;4.80;;;9.90;99.90;;;;;;5026277;28;20429;-61
2022/10/27 02:38:53;;;;;;;7.37;3.80;;;9.90;99.90;;;;;;5019777;28;21025;-62
2022/10/27 02:41:19;;;;;;;11.50;4.10;;;9.90;99.90;;;;;;5026018;28;20525;-62
2022/10/27 02:43:45;;;;;;;10.07;3.77;;;9.90;99.90;;;;;;5019818;28;20635;-61
2022/10/27 02:46:10;;;;;;;24.67;4.50;;;9.90;99.90;;;;;;5028004;28;20274;-61
2022/10/27 02:48:36;;;;;;;15.20;4.40;;;9.90;99.90;;;;;;5027478;28;20219;-61
2022/10/27 02:51:01;;;;;;;13.30;3.53;;;9.90;99.90;;;;;;5026292;28;20202;-62
2022/10/27 02:53:27;;;;;;;20.03;5.47;;;9.90;99.90;;;;;;5032627;28;20183;-61
2022/10/27 02:55:52;;;;;;;23.90;8.00;;;9.90;99.90;;;;;;5026075;28;20223;-62
2022/10/27 02:58:18;;;;;;;24.87;6.13;;;9.90;99.90;;;;;;5029409;28;20735;-62
2022/10/27 03:00:44;;;;;;;13.03;6.03;;;9.90;99.90;;;;;;5015596;28;20196;-61
2022/10/27 03:03:09;;;;;;;14.40;4.37;;;9.90;99.90;;;;;;5022364;28;20179;-62
2022/10/27 03:05:35;;;;;;;37.90;8.10;;;9.90;99.90;;;;;;5023087;28;20646;-62
2022/10/27 03:08:00;;;;;;;15.63;5.60;;;9.90;99.90;;;;;;5019399;28;20658;-61
2022/10/27 03:10:26;;;;;;;16.57;4.70;;;9.90;99.90;;;;;;5020158;28;20227;-61
2022/10/27 03:12:52;;;;;;;39.73;4.87;;;9.90;99.90;;;;;;5025289;28;20245;-61
2022/10/27 03:15:17;;;;;;;23.33;5.13;;;9.80;99.90;;;;;;5027854;28;20266;-61
2022/10/27 03:17:44;;;;;;;24.83;4.40;;;9.80;99.90;;;;;;5023139;28;20722;-61
2022/10/27 03:20:11;;;;;;;10.80;4.00;;;9.80;99.90;;;;;;5024781;28;20249;-62
2022/10/27 03:22:37;;;;;;;27.23;4.50;;;9.70;99.90;;;;;;5020114;28;20442;-61
2022/10/27 03:25:03;;;;;;;20.93;4.97;;;9.70;99.90;;;;;;5023208;28;20442;-61
2022/10/27 03:27:29;;;;;;;15.53;5.20;;;9.80;99.90;;;;;;5029091;28;20472;-61
2022/10/27 03:29:54;;;;;;;63.50;7.20;;;9.70;99.90;;;;;;5032849;28;20945;-61
2022/10/27 03:32:20;;;;;;;16.50;4.60;;;9.70;99.90;;;;;;5025625;28;20222;-61
2022/10/27 03:34:46;;;;;;;32.70;6.53;;;9.70;99.90;;;;;;5025364;28;20813;-61
2022/10/27 03:37:11;;;;;;;11.97;4.80;;;9.70;99.90;;;;;;5031007;28;20204;-61
2022/10/27 03:39:37;;;;;;;57.70;5.37;;;9.70;99.90;;;;;;5030609;28;20187;-61
2022/10/27 03:42:02;;;;;;;8.17;3.70;;;9.70;99.90;;;;;;5030033;28;20210;-61
2022/10/27 03:44:28;;;;;;;6.30;3.53;;;9.60;99.90;;;;;;5027008;28;20275;-62
2022/10/27 03:46:53;;;;;;;7.67;3.60;;;9.60;99.90;;;;;;5022052;28;20553;-61
2022/10/27 03:49:19;;;;;;;15.43;3.73;;;9.60;99.90;;;;;;5027951;28;20267;-61
2022/10/27 03:51:45;;;;;;;7.40;3.60;;;9.60;99.90;;;;;;5019153;28;20687;-61
2022/10/27 03:54:10;;;;;;;20.10;4.73;;;9.60;99.90;;;;;;5020619;28;20182;-62
2022/10/27 03:56:36;;;;;;;27.87;4.80;;;9.60;99.90;;;;;;5025406;28;20624;-60
2022/10/27 03:59:01;;;;;;;6.00;3.30;;;9.50;99.90;;;;;;5024835;28;20663;-61
2022/10/27 04:01:29;;;;;;;18.13;4.00;;;9.50;99.90;;;;;;5024575;28;20298;-61
2022/10/27 04:03:54;;;;;;;7.83;3.37;;;9.50;99.90;;;;;;5022077;28;20179;-61
2022/10/27 04:06:20;;;;;;;13.53;3.67;;;9.50;99.90;;;;;;5018546;28;20501;-62
2022/10/27 04:08:45;;;;;;;8.17;3.10;;;9.50;99.90;;;;;;5016060;28;20275;-62
2022/10/27 04:11:11;;;;;;;22.57;4.07;;;9.50;99.90;;;;;;5025287;28;20204;-61
2022/10/27 04:13:37;;;;;;;6.20;3.67;;;9.50;99.90;;;;;;5026235;28;20348;-61
2022/10/27 04:16:02;;;;;;;10.70;3.40;;;9.40;99.90;;;;;;5026587;28;20182;-61
2022/10/27 04:18:28;;;;;;;11.87;3.40;;;9.40;99.90;;;;;;5017352;28;20210;-61
2022/10/27 04:20:53;;;;;;;11.97;3.67;;;9.50;99.90;;;;;;5030867;28;20306;-61
2022/10/27 04:23:19;;;;;;;6.33;3.80;;;9.40;99.90;;;;;;5031176;28;20180;-61
2022/10/27 04:25:45;;;;;;;22.67;4.00;;;9.40;99.90;;;;;;5019701;28;20188;-61
2022/10/27 04:28:10;;;;;;;8.40;3.73;;;9.40;99.90;;;;;;5026951;28;20184;-61
2022/10/27 04:30:36;;;;;;;13.67;3.97;;;9.30;99.90;;;;;;5087145;22;20243;-54
2022/10/27 04:33:02;;;;;;;14.93;3.30;;;9.30;99.90;;;;;;5087531;28;20261;-56
2022/10/27 04:35:28;;;;;;;5.23;3.53;;;9.30;99.90;;;;;;5081570;28;20762;-56
2022/10/27 04:37:55;;;;;;;9.23;3.37;;;9.30;99.90;;;;;;5066885;28;20489;-55
2022/10/27 04:40:21;;;;;;;11.10;3.50;;;9.30;99.90;;;;;;5071874;28;20441;-57
2022/10/27 04:42:47;;;;;;;17.50;3.73;;;9.30;99.90;;;;;;5058671;28;20437;-58
2022/10/27 04:45:13;;;;;;;10.40;3.20;;;9.20;99.90;;;;;;5063331;28;20960;-56
2022/10/27 04:47:39;;;;;;;26.27;4.47;;;9.20;99.90;;;;;;5067846;28;20680;-57
2022/10/27 04:50:05;;;;;;;11.90;4.00;;;9.20;99.90;;;;;;5069493;28;20433;-56
2022/10/27 04:52:31;;;;;;;26.53;4.53;;;9.20;99.90;;;;;;5063407;28;20277;-56
2022/10/27 04:54:56;;;;;;;5.80;3.23;;;9.10;99.90;;;;;;5065316;28;20519;-56
2022/10/27 04:57:22;;;;;;;9.97;4.00;;;9.10;99.90;;;;;;5066774;28;20182;-55
2022/10/27 04:59:47;;;;;;;9.03;3.33;;;9.10;99.90;;;;;;5067929;28;20277;-55
2022/10/27 05:02:13;;;;;;;12.40;3.60;;;9.10;99.90;;;;;;5068990;28;20201;-55
2022/10/27 05:04:39;;;;;;;12.53;4.00;;;9.10;99.90;;;;;;5070762;28;20227;-57
2022/10/27 05:07:04;;;;;;;15.70;3.77;;;9.10;99.90;;;;;;5067440;28;20190;-57
2022/10/27 05:09:30;;;;;;;15.60;4.27;;;9.10;99.90;;;;;;5066278;28;20205;-56
2022/10/27 05:11:55;;;;;;;13.47;4.20;;;9.00;99.90;;;;;;5055959;28;20257;-55
2022/10/27 05:14:21;;;;;;;9.93;3.70;;;9.10;99.90;;;;;;5066031;28;20576;-57
2022/10/27 05:16:46;;;;;;;11.70;3.93;;;9.00;99.90;;;;;;5063075;28;20269;-57
2022/10/27 05:19:12;;;;;;;9.07;4.00;;;9.00;99.90;;;;;;5066469;28;20185;-54
2022/10/27 05:21:38;;;;;;;43.17;4.40;;;9.00;99.90;;;;;;5065515;28;20642;-56
2022/10/27 05:24:04;;;;;;;17.97;3.30;;;9.00;99.90;;;;;;5063420;28;20205;-55
2022/10/27 05:26:29;;;;;;;21.43;3.90;;;9.00;99.90;;;;;;5064868;28;20182;-57
2022/10/27 05:28:55;;;;;;;7.83;3.83;;;8.90;99.90;;;;;;5060788;28;20425;-57
2022/10/27 05:31:21;;;;;;;6.63;3.47;;;8.90;99.90;;;;;;5065243;28;20704;-56
2022/10/27 05:33:46;;;;;;;28.37;4.13;;;8.90;99.90;;;;;;5062772;28;21006;-55
2022/10/27 05:36:12;;;;;;;7.40;3.80;;;8.90;99.90;;;;;;5063740;28;20588;-55
2022/10/27 05:38:38;;;;;;;28.33;4.20;;;8.90;99.90;;;;;;5062778;28;20187;-56
2022/10/27 05:41:04;;;;;;;18.57;3.40;;;8.90;99.90;;;;;;5059067;28;20214;-56
2022/10/27 05:43:30;;;;;;;5.43;3.60;;;8.90;99.90;;;;;;5062638;28;20942;-57
2022/10/27 05:45:55;;;;;;;20.47;3.50;;;8.90;99.90;;;;;;5067594;28;20429;-55
2022/10/27 05:48:21;;;;;;;7.00;3.13;;;8.90;99.90;;;;;;5063716;28;20183;-55
2022/10/27 05:50:52;;;;;;;3.67;3.30;;;8.90;99.90;;;;;;5065581;28;20243;-57
2022/10/27 05:53:18;;;;;;;11.77;3.93;;;8.90;99.90;;;;;;5056866;28;20181;-55
2022/10/27 05:55:44;;;;;;;11.67;3.70;;;8.80;99.90;;;;;;5064575;28;20588;-56
2022/10/27 05:58:10;;;;;;;30.80;4.40;;;8.80;99.90;;;;;;5064003;28;20528;-56
2022/10/27 06:00:37;;;;;;;10.30;5.03;;;8.80;99.90;;;;;;5063271;28;20600;-53
2022/10/27 06:03:05;;;;;;;14.63;4.70;;;8.80;99.90;;;;;;5066652;28;20417;-56
2022/10/27 06:05:34;;;;;;;9.43;4.50;;;8.80;99.90;;;;;;5065288;28;20437;-57
2022/10/27 06:07:59;;;;;;;15.13;3.63;;;8.70;99.90;;;;;;5060944;28;20436;-54
2022/10/27 06:10:25;;;;;;;35.37;4.50;;;8.70;99.90;;;;;;5059117;28;20440;-55
2022/10/27 06:12:51;;;;;;;6.60;3.20;;;8.70;99.90;;;;;;5066477;28;20171;-56
2022/10/27 06:15:16;;;;;;;41.60;5.20;;;8.70;99.90;;;;;;5058606;28;20186;-56
2022/10/27 06:17:42;;;;;;;11.10;3.87;;;8.70;99.90;;;;;;5062406;28;20203;-57
2022/10/27 06:20:08;;;;;;;7.70;4.00;;;8.70;99.90;;;;;;5064702;28;20186;-57
2022/10/27 06:22:34;;;;;;;19.93;4.30;;;8.70;99.90;;;;;;5060216;28;20211;-57
2022/10/27 06:24:59;;;;;;;4.10;3.50;;;8.70;99.90;;;;;;5065965;28;20433;-58
2022/10/27 06:27:25;;;;;;;8.33;3.00;;;8.70;99.90;;;;;;5064681;28;20603;-56
2022/10/27 06:29:50;;;;;;;8.57;3.40;;;8.70;99.90;;;;;;5061613;28;20191;-56
2022/10/27 06:32:16;;;;;;;9.30;3.07;;;8.80;99.90;;;;;;5057103;28;20265;-56
2022/10/27 06:34:42;;;;;;;27.77;5.80;;;8.80;99.90;;;;;;5058825;28;20735;-58
2022/10/27 06:37:07;;;;;;;56.23;6.83;;;8.70;99.90;;;;;;5053028;28;20206;-55
2022/10/27 06:39:33;;;;;;;11.30;3.70;;;8.70;99.90;;;;;;5062756;28;20198;-56
2022/10/27 06:41:58;;;;;;;12.63;4.03;;;8.70;99.90;;;;;;5065480;28;20279;-56
2022/10/27 06:44:24;;;;;;;6.53;3.60;;;8.70;99.90;;;;;;5063752;28;20167;-58
2022/10/27 06:46:50;;;;;;;40.37;7.03;;;8.70;99.90;;;;;;5061138;28;20176;-56
2022/10/27 06:49:16;;;;;;;24.00;6.10;;;8.70;99.90;;;;;;5061433;28;20172;-56
2022/10/27 06:51:42;;;;;;;20.27;6.63;;;8.70;99.90;;;;;;5064335;28;20516;-56
2022/10/27 06:54:08;;;;;;;11.67;6.00;;;8.70;99.90;;;;;;5059259;28;20433;-57
2022/10/27 06:56:34;;;;;;;18.50;8.07;;;8.70;99.90;;;;;;5062691;28;20182;-56
2022/10/27 06:59:00;;;;;;;18.27;8.00;;;8.70;99.90;;;;;;5066699;28;20523;-59
2022/10/27 07:01:26;;;;;;;26.00;6.33;;;8.70;99.90;;;;;;5065424;28;20229;-58
2022/10/27 07:03:51;;;;;;;16.97;6.33;;;8.70;99.90;;;;;;5067171;28;20744;-56
2022/10/27 07:06:17;;;;;;;30.70;8.20;;;8.70;99.90;;;;;;5060651;28;20837;-57
2022/10/27 07:08:43;;;;;;;34.37;8.90;;;8.80;99.90;;;;;;5064053;28;20197;-55
2022/10/27 07:11:08;;;;;;;24.60;7.97;;;8.80;99.90;;;;;;5067821;28;20186;-55
2022/10/27 07:13:34;;;;;;;27.90;10.00;;;8.80;99.90;;;;;;5064572;28;20793;-56
2022/10/27 07:16:00;;;;;;;35.87;9.97;;;8.80;99.90;;;;;;5062247;28;20185;-55
2022/10/27 07:18:26;;;;;;;34.07;8.33;;;8.90;99.90;;;;;;5063435;28;20515;-56
2022/10/27 07:20:52;;;;;;;25.23;5.40;;;8.90;99.90;;;;;;5058245;28;20198;-57
2022/10/27 07:23:18;;;;;;;12.07;4.77;;;8.80;99.90;;;;;;5058165;28;20305;-56
2022/10/27 07:25:47;;;;;;;5.67;3.43;;;8.80;99.90;;;;;;5065261;28;20489;-57
2022/10/27 07:28:13;;;;;;;15.90;3.60;;;8.70;99.90;;;;;;5066049;28;20452;-54
2022/10/27 07:30:43;;;;;;;3.60;3.00;;;8.70;99.90;;;;;;5063931;28;20529;-54
2022/10/27 07:33:09;;;;;;;12.67;3.10;;;8.70;99.90;;;;;;5059360;28;20552;-54
2022/10/27 07:35:34;;;;;;;15.27;3.27;;;8.80;99.90;;;;;;5064611;28;20428;-56
2022/10/27 07:38:00;;;;;;;3.37;3.07;;;8.80;99.90;;;;;;5063464;28;20435;-56
2022/10/27 07:40:26;;;;;;;5.17;3.03;;;8.80;99.90;;;;;;5055016;28;20203;-55
2022/10/27 07:42:55;;;;;;;17.43;3.67;;;8.80;99.90;;;;;;5066917;28;20195;-59
2022/10/27 07:45:22;;;;;;;4.47;2.70;;;8.90;99.90;;;;;;5067750;28;20246;-56
2022/10/27 07:47:53;;;;;;;3.73;3.07;;;8.90;99.90;;;;;;5066699;28;20420;-54
2022/10/27 07:50:22;;;;;;;3.13;2.83;;;9.00;99.90;;;;;;5064247;28;20574;-56
2022/10/27 07:52:50;;;;;;;3.77;3.30;;;9.00;99.90;;;;;;5062754;28;20440;-56
2022/10/27 07:55:17;;;;;;;3.90;2.40;;;9.10;99.90;;;;;;5066483;28;20424;-54
2022/10/27 07:57:43;;;;;;;5.33;3.40;;;9.10;99.90;;;;;;5057614;28;20985;-56
2022/10/27 08:00:14;;;;;;;4.50;3.60;;;9.10;99.90;;;;;;5067759;28;20791;-56
2022/10/27 08:02:41;;;;;;;6.50;3.70;;;9.20;99.90;;;;;;5059827;28;20460;-56
2022/10/27 08:05:07;;;;;;;4.90;3.20;;;9.20;99.90;;;;;;5067474;28;20424;-54
2022/10/27 08:07:33;;;;;;;4.20;3.80;;;9.30;99.90;;;;;;5066208;28;20428;-54
2022/10/27 08:09:59;;;;;;;4.90;3.07;;;9.30;99.90;;;;;;5063959;28;20448;-55
2022/10/27 08:12:25;;;;;;;4.50;3.87;;;9.40;99.90;;;;;;5060320;28;20449;-56
2022/10/27 08:14:50;;;;;;;4.30;3.90;;;9.50;99.90;;;;;;5064397;28;20195;-55
2022/10/27 08:17:16;;;;;;;10.90;7.67;;;9.50;99.90;;;;;;5059085;28;20179;-56
2022/10/27 08:19:42;;;;;;;13.10;8.23;;;9.50;99.90;;;;;;5070361;28;20403;-56
2022/10/27 08:22:07;;;;;;;16.83;8.20;;;9.60;99.90;;;;;;5062971;28;20193;-54
2022/10/27 08:24:33;;;;;;;14.20;8.43;;;9.70;99.90;;;;;;5063457;28;20185;-56
2022/10/27 08:26:59;;;;;;;8.33;6.23;;;9.70;99.90;;;;;;5068639;28;20174;-56
2022/10/27 08:29:25;;;;;;;6.80;4.10;;;9.80;99.90;;;;;;5065837;28;22314;-55
2022/10/27 08:31:51;;;;;;;5.10;3.50;;;9.80;99.90;;;;;;5067604;28;20806;-55
2022/10/27 08:34:17;;;;;;;4.10;3.13;;;9.90;99.90;;;;;;5061988;28;20479;-56
2022/10/27 08:36:43;;;;;;;4.60;3.10;;;9.90;99.90;;;;;;5061882;28;20437;-58
2022/10/27 08:39:09;;;;;;;3.80;3.07;;;9.90;99.90;;;;;;5065025;28;20229;-55
2022/10/27 08:42:14;;;;;;;6.03;4.43;;;10.00;99.90;;;;;;5061139;28;20202;-57
2022/10/27 08:44:48;;;;;;;5.43;3.63;;;10.10;99.90;;;;;;5062677;28;20427;-55
2022/10/27 08:47:19;;;;;;;5.67;3.80;;;10.20;99.90;;;;;;5059372;28;20424;-58
2022/10/27 08:50:04;;;;;;;9.23;3.70;;;10.30;99.90;;;;;;5066652;28;20459;-55
2022/10/27 08:53:03;;;;;;;6.30;3.50;;;10.50;99.90;;;;;;5062310;28;20431;-56
2022/10/27 08:55:34;;;;;;;4.70;3.10;;;10.70;99.90;;;;;;5062191;28;20436;-55
2022/10/27 08:58:33;;;;;;;6.53;3.40;;;10.90;99.90;;;;;;5066770;28;20475;-56
2022/10/27 09:01:22;;;;;;;4.27;3.77;;;11.10;99.90;;;;;;5064052;28;20492;-55
2022/10/27 09:04:09;;;;;;;6.93;4.40;;;11.30;99.90;;;;;;5062740;28;20420;-57
2022/10/27 09:06:46;;;;;;;8.27;3.77;;;11.50;99.90;;;;;;5065742;28;20570;-58
2022/10/27 09:09:24;;;;;;;8.83;4.33;;;11.60;99.90;;;;;;5067564;28;20412;-55
2022/10/27 09:12:05;;;;;;;3.70;3.40;;;11.80;99.90;;;;;;5067820;28;20424;-55
2022/10/27 09:14:55;;;;;;;4.43;3.13;;;12.00;99.90;;;;;;5069512;28;20428;-55
2022/10/27 09:17:37;;;;;;;9.30;3.13;;;12.10;99.90;;;;;;5069210;28;20438;-56
2022/10/27 09:20:30;;;;;;;5.33;3.20;;;12.20;99.90;;;;;;5054654;28;21136;-57
2022/10/27 09:23:00;;;;;;;6.40;3.77;;;12.40;99.90;;;;;;5054922;28;20496;-58
2022/10/27 09:25:27;;;;;;;5.27;4.20;;;12.60;99.90;;;;;;5066557;28;20468;-54
2022/10/27 09:27:55;;;;;;;6.50;3.60;;;12.70;99.90;;;;;;5066216;28;20435;-58
2022/10/27 09:30:21;;;;;;;4.93;3.60;;;12.90;99.90;;;;;;5065841;28;20468;-55
2022/10/27 09:32:52;;;;;;;6.53;3.27;;;13.00;99.90;;;;;;5063563;28;20440;-56
2022/10/27 09:35:30;;;;;;;5.93;3.20;;;13.20;99.90;;;;;;5060702;28;20182;-54
2022/10/27 09:37:58;;;;;;;7.27;3.80;;;13.40;99.90;;;;;;5064565;28;20434;-55
2022/10/27 09:40:29;;;;;;;11.50;3.90;;;13.60;99.90;;;;;;5065697;28;20440;-54
2022/10/27 09:42:55;;;;;;;3.73;3.10;;;13.70;99.90;;;;;;5060671;28;20549;-55
2022/10/27 09:45:26;;;;;;;12.20;4.47;;;13.80;99.90;;;;;;5068636;28;20930;-54
2022/10/27 09:47:58;;;;;;;7.60;4.73;;;14.00;99.90;;;;;;5059154;28;21072;-54
2022/10/27 09:50:35;;;;;;;11.80;4.10;;;14.20;99.90;;;;;;5068091;28;21047;-57
2022/10/27 09:53:01;;;;;;;7.53;3.83;;;14.30;99.90;;;;;;5060626;28;20421;-55
2022/10/27 09:55:48;;;;;;;12.33;4.53;;;14.40;99.90;;;;;;5065155;28;20907;-55
2022/10/27 09:58:14;;;;;;;12.97;5.10;;;14.50;99.90;;;;;;5064449;28;20950;-57
2022/10/27 10:00:41;;;;;;;14.37;6.30;;;14.60;99.90;;;;;;5061323;28;20460;-54
2022/10/27 10:03:19;;;;;;;12.80;5.40;;;14.70;99.90;;;;;;5058648;28;20424;-57
2022/10/27 10:05:46;;;;;;;15.93;5.70;;;14.90;99.90;;;;;;5066263;28;20448;-55
2022/10/27 10:08:22;;;;;;;10.47;6.27;;;15.10;99.90;;;;;;5059779;28;20454;-55
2022/10/27 10:10:56;;;;;;;15.83;6.97;;;15.20;99.90;;;;;;5058959;28;20441;-57
2022/10/27 10:13:23;;;;;;;19.13;6.60;;;15.30;99.90;;;;;;5063417;28;20419;-58
2022/10/27 10:16:03;;;;;;;18.43;5.60;;;15.40;99.90;;;;;;5059916;28;20429;-56
2022/10/27 10:18:30;;;;;;;9.33;3.73;;;15.60;99.90;;;;;;5064170;28;20430;-55
2022/10/27 10:20:59;;;;;;;7.67;3.10;;;15.80;99.90;;;;;;5065296;28;20515;-56
2022/10/27 10:23:28;;;;;;;6.57;3.27;;;15.90;99.90;;;;;;5065062;28;20799;-56
2022/10/27 10:25:57;;;;;;;12.53;4.00;;;16.00;99.90;;;;;;5067881;28;20954;-52
2022/10/27 10:28:36;;;;;;;17.87;4.00;;;16.20;99.90;;;;;;5058516;28;20420;-51
2022/10/27 10:31:05;;;;;;;7.37;3.40;;;16.30;99.90;;;;;;5088110;22;20491;-62
2022/10/27 10:33:44;;;;;;;12.03;4.20;;;16.50;99.90;;;;;;5061252;28;20994;-63
2022/10/27 10:36:23;;;;;;;5.97;3.40;;;16.60;99.90;;;;;;5066710;28;20416;-63
2022/10/27 10:38:52;;;;;;;5.47;3.83;;;16.70;99.90;;;;;;5064875;28;20429;-63
2022/10/27 10:41:21;;;;;;;8.83;3.17;;;16.90;99.90;;;;;;5059028;28;20508;-61
2022/10/27 10:44:06;;;;;;;8.30;3.73;;;17.00;99.90;;;;;;5065263;28;20494;-62
2022/10/27 10:46:33;;;;;;;15.50;3.67;;;17.10;99.90;;;;;;5064135;28;20436;-61
2022/10/27 10:48:59;;;;;;;11.23;4.30;;;17.30;99.90;;;;;;5070486;28;20866;-62
2022/10/27 10:51:28;;;;;;;10.60;3.80;;;17.60;99.90;;;;;;5063448;28;20446;-61
2022/10/27 10:54:07;;;;;;;14.17;4.63;;;17.70;99.90;;;;;;5061524;28;20436;-62
2022/10/27 10:56:35;;;;;;;11.03;4.10;;;17.90;99.90;;;;;;5076644;28;20427;-61
2022/10/27 10:59:09;;;;;;;6.07;3.27;;;18.10;99.90;;;;;;5064587;28;20433;-62
2022/10/27 11:01:59;;;;;;;11.00;3.87;;;18.30;99.90;;;;;;5060193;28;20557;-61
2022/10/27 11:04:29;;;;;;;19.40;4.10;;;18.50;99.90;;;;;;5066370;28;20466;-62
2022/10/27 11:06:57;;;;;;;8.50;3.83;;;18.70;99.90;;;;;;5062004;28;20416;-61
2022/10/27 11:09:29;;;;;;;11.00;3.73;;;18.90;99.00;;;;;;5065547;28;20413;-61
2022/10/27 11:11:56;;;;;;;9.17;3.90;;;19.10;94.20;;;;;;5071937;28;20421;-61
2022/10/27 11:14:24;;;;;;;9.50;3.50;;;19.30;95.00;;;;;;5062748;28;20974;-61
2022/10/27 11:16:54;;;;;;;15.33;3.47;;;19.50;90.60;;;;;;5065072;28;20874;-61
2022/10/27 11:19:21;;;;;;;9.70;3.50;;;19.70;85.70;;;;;;5064954;28;20462;-58
2022/10/27 11:21:58;;;;;;;6.57;3.10;;;19.90;83.60;;;;;;5068087;28;20468;-60
2022/10/27 11:24:51;;;;;;;7.17;3.20;;;20.20;84.00;;;;;;5067303;28;20428;-62
2022/10/27 11:27:29;;;;;;;9.43;3.50;;;20.50;80.20;;;;;;5065888;28;20436;-58
2022/10/27 11:30:02;;;;;;;5.63;3.30;;;20.90;78.10;;;;;;5066221;28;20435;-59
2022/10/27 11:32:42;;;;;;;9.93;3.47;;;21.20;72.50;;;;;;5067222;28;20439;-60
2022/10/27 11:35:19;;;;;;;16.50;4.10;;;21.60;66.00;;;;;;5068228;28;20440;-60
2022/10/27 11:38:07;;;;;;;10.83;3.57;;;22.00;63.30;;;;;;5065581;28;20432;-61
2022/10/27 11:40:32;;;;;;;8.47;3.40;;;22.50;60.60;;;;;;5068144;28;20463;-62
2022/10/27 11:43:08;;;;;;;9.80;3.73;;;23.00;59.50;;;;;;5062761;28;20460;-62
2022/10/27 11:45:40;;;;;;;15.77;3.47;;;23.70;58.70;;;;;;5063811;28;20170;-62
2022/10/27 11:48:16;;;;;;;9.53;3.20;;;24.40;57.00;;;;;;5073427;28;20174;-61
2022/10/27 11:50:53;;;;;;;9.43;3.75;;;25.10;55.50;;;;;;5069081;28;20186;-61
2022/10/27 11:53:19;;;;;;;8.60;2.70;;;25.70;53.00;;;;;;5065056;28;20185;-62
2022/10/27 11:56:07;;;;;;;7.65;2.65;;;26.10;50.90;;;;;;5068351;28;20176;-62
2022/10/27 11:58:39;;;;;;;7.35;2.42;;;26.70;50.20;;;;;;5068608;28;20699;-58
2022/10/27 12:01:14;;;;;;;6.70;2.67;;;27.10;47.50;;;;;;5069872;28;20210;-58
2022/10/27 12:04:07;;;;;;;7.47;2.38;;;27.50;46.60;;;;;;5078714;28;20203;-59
2022/10/27 12:06:51;;;;;;;13.95;2.85;;;27.80;45.40;;;;;;5063847;28;20767;-59
2022/10/27 12:09:59;;;;;;;6.97;2.35;;;28.20;44.20;;;;;;5058167;28;20699;-60
2022/10/27 12:12:36;;;;;;;4.78;2.10;;;28.60;44.50;;;;;;5059128;28;20189;-60
2022/10/27 12:15:13;;;;;;;4.32;2.17;;;29.00;42.60;;;;;;5060408;28;20856;-59
2022/10/27 12:17:56;;;;;;;9.45;1.95;;;29.20;40.20;;;;;;5065019;28;20212;-60
2022/10/27 12:20:46;;;;;;;6.53;2.20;;;29.40;38.80;;;;;;5068859;28;20208;-61
2022/10/27 12:23:35;;;;;;;8.35;2.13;;;29.60;38.00;;;;;;5064199;28;20690;-61
2022/10/27 12:26:16;;;;;;;13.05;2.17;;;29.70;37.40;;;;;;5066785;28;20524;-61
2022/10/27 12:28:43;;;;;;;4.63;2.28;;;29.70;36.50;;;;;;5063112;28;20713;-62
2022/10/27 12:31:17;;;;;;;7.18;2.45;;;29.70;35.50;;;;;;5057852;28;20215;-61
2022/10/27 12:33:54;;;;;;;8.60;2.20;;;29.70;35.70;;;;;;5076061;28;20595;-61
2022/10/27 12:36:44;;;;;;;5.18;2.13;;;29.60;36.20;;;;;;5062567;28;20178;-62
2022/10/27 12:39:35;;;;;;;8.18;1.90;;;29.50;35.10;;;;;;5076703;28;20175;-62
2022/10/27 12:42:16;;;;;;;5.78;2.08;;;29.20;35.00;;;;;;5060673;28;20584;-62
2022/10/27 12:45:06;;;;;;;5.15;1.80;;;28.50;36.60;;;;;;5067654;28;20173;-57
2022/10/27 12:47:37;;;;;;;5.03;1.75;;;27.50;38.10;;;;;;5062298;28;20178;-63
2022/10/27 12:50:15;;;;;;;5.78;1.67;;;26.40;39.50;;;;;;5060038;28;20689;-63
2022/10/27 12:53:07;;;;;;;8.00;1.88;;;25.60;40.50;;;;;;5064209;28;20182;-62
2022/10/27 12:55:38;;;;;;;7.18;1.85;;;24.90;41.60;;;;;;5062464;28;20189;-61
2022/10/27 12:58:16;;;;;;;6.25;2.30;;;24.20;42.20;;;;;;5065154;28;20175;-62
2022/10/27 13:01:23;;;;;;;8.13;1.85;;;24.00;44.10;;;;;;5063059;28;20190;-61
2022/10/27 13:04:18;;;;;;;3.90;2.03;;;23.90;45.40;;;;;;5057908;28;20220;-60